createdAt,value
2023-03-01T00:02:33.326Z,9.13
2023-03-01T00:05:35.912Z,10.23
2023-03-01T00:08:38.842Z,8.98
2023-03-01T00:11:41.783Z,9.50
2023-03-01T00:14:44.388Z,9.10
2023-03-01T00:17:48.354Z,9.50
2023-03-01T00:20:52.604Z,9.15
2023-03-01T00:23:55.943Z,8.95
2023-03-01T00:26:58.586Z,9.00
2023-03-01T00:30:01.644Z,10.68
2023-03-01T00:33:05.938Z,9.23
2023-03-01T00:36:08.998Z,9.38
2023-03-01T00:39:13.877Z,9.30
2023-03-01T00:42:17.057Z,9.90
2023-03-01T00:45:19.902Z,9.55
2023-03-01T00:48:24.130Z,9.18
2023-03-01T00:51:29.079Z,9.00
2023-03-01T00:54:31.821Z,9.45
2023-03-01T00:57:34.556Z,9.75
2023-03-01T01:00:37.745Z,9.63
2023-03-01T01:03:41.692Z,9.35
2023-03-01T01:06:46.158Z,9.05
2023-03-01T01:09:48.834Z,10.35
2023-03-01T01:12:51.723Z,9.48
2023-03-01T01:15:54.355Z,8.60
2023-03-01T01:18:58.928Z,9.13
2023-03-01T01:22:01.499Z,8.82
2023-03-01T01:25:04.635Z,8.95
2023-03-01T01:28:07.246Z,9.45
2023-03-01T01:31:09.983Z,9.27
2023-03-01T01:34:18.303Z,8.27
2023-03-01T01:37:21.073Z,9.95
2023-03-01T01:40:23.676Z,9.15
2023-03-01T01:43:28.584Z,9.05
2023-03-01T01:46:34.105Z,9.43
2023-03-01T01:49:40.407Z,10.18
2023-03-01T01:52:43.134Z,9.48
2023-03-01T01:55:48.245Z,9.93
2023-03-01T01:58:51.555Z,9.43
2023-03-01T02:01:54.653Z,9.70
2023-03-01T02:05:05.121Z,8.98
2023-03-01T02:08:08.342Z,9.07
2023-03-01T02:11:12.380Z,9.13
2023-03-01T02:14:15.231Z,9.20
2023-03-01T02:17:19.955Z,9.60
2023-03-01T02:20:28.914Z,9.40
2023-03-01T02:23:31.618Z,9.93
2023-03-01T02:26:37.956Z,9.47
2023-03-01T02:29:44.980Z,10.90
2023-03-01T02:32:47.983Z,10.17
2023-03-01T02:35:50.751Z,10.15
2023-03-01T02:38:55.526Z,9.63
2023-03-01T02:42:00.075Z,9.60
2023-03-01T02:45:04.713Z,9.23
2023-03-01T02:48:07.624Z,9.63
2023-03-01T02:51:15.365Z,9.38
2023-03-01T02:54:24.916Z,8.80
2023-03-01T02:57:29.753Z,9.47
2023-03-01T03:00:40.979Z,9.43
2023-03-01T03:03:44.045Z,9.47
2023-03-01T03:06:46.931Z,9.70
2023-03-01T03:09:49.533Z,9.50
2023-03-01T03:12:53.301Z,9.73
2023-03-01T03:15:58.376Z,9.77
2023-03-01T03:19:06.023Z,10.33
2023-03-01T03:22:09.949Z,9.80
2023-03-01T03:28:16.842Z,10.07
2023-03-01T03:31:21.244Z,9.33
2023-03-01T03:34:24.273Z,9.83
2023-03-01T03:37:52.794Z,9.63
2023-03-01T03:41:03.274Z,10.13
2023-03-01T03:44:06.157Z,9.37
2023-03-01T03:47:10.134Z,10.03
2023-03-01T03:50:14.000Z,9.50
2023-03-01T03:56:19.042Z,9.17
2023-03-01T03:59:21.691Z,9.40
2023-03-01T04:02:27.347Z,10.25
2023-03-01T04:05:30.550Z,9.97
2023-03-01T04:08:33.495Z,10.13
2023-03-01T04:11:36.180Z,10.13
2023-03-01T04:14:38.924Z,10.50
2023-03-01T04:17:44.011Z,10.00
2023-03-01T04:20:47.649Z,11.47
2023-03-01T04:23:53.488Z,9.70
2023-03-01T04:26:56.172Z,9.80
2023-03-01T04:29:58.751Z,11.80
2023-03-01T04:33:03.757Z,10.77
2023-03-01T04:36:09.730Z,10.87
2023-03-01T04:39:14.100Z,12.13
2023-03-01T04:42:17.699Z,11.40
2023-03-01T04:45:20.601Z,9.43
2023-03-01T04:48:24.716Z,10.27
2023-03-01T04:51:27.518Z,11.00
2023-03-01T04:54:30.387Z,11.60
2023-03-01T04:57:33.135Z,10.53
2023-03-01T05:00:35.825Z,11.03
2023-03-01T05:03:40.764Z,10.60
2023-03-01T05:06:44.681Z,11.17
2023-03-01T05:09:47.817Z,10.87
2023-03-01T05:12:50.435Z,10.80
2023-03-01T05:15:57.920Z,10.80
2023-03-01T05:19:02.280Z,10.63
2023-03-01T05:22:05.855Z,10.60
2023-03-01T05:25:09.331Z,11.00
2023-03-01T05:28:13.738Z,11.48
2023-03-01T05:31:16.768Z,10.17
2023-03-01T05:34:23.783Z,10.50
2023-03-01T05:37:26.605Z,10.77
2023-03-01T05:40:30.308Z,12.53
2023-03-01T05:43:34.890Z,10.13
2023-03-01T05:46:37.606Z,9.73
2023-03-01T05:49:41.875Z,11.17
2023-03-01T05:52:44.429Z,11.43
2023-03-01T05:55:48.438Z,10.27
2023-03-01T05:58:51.395Z,10.53
2023-03-01T06:01:54.509Z,12.55
2023-03-01T06:04:59.871Z,11.00
2023-03-01T06:08:03.258Z,10.77
2023-03-01T06:11:06.364Z,10.57
2023-03-01T06:14:11.451Z,11.20
2023-03-01T06:17:14.248Z,11.43
2023-03-01T06:20:20.267Z,12.50
2023-03-01T06:23:22.922Z,9.57
2023-03-01T06:26:25.727Z,11.53
2023-03-01T06:29:28.562Z,11.40
2023-03-01T06:32:32.085Z,11.47
2023-03-01T06:35:36.157Z,10.20
2023-03-01T06:38:38.836Z,10.20
2023-03-01T06:41:42.039Z,10.23
2023-03-01T06:44:46.819Z,11.98
2023-03-01T06:47:50.051Z,11.90
2023-03-01T06:50:54.168Z,10.13
2023-03-01T06:53:56.822Z,11.43
2023-03-01T06:56:59.440Z,11.13
2023-03-01T07:00:02.462Z,11.00
2023-03-01T07:03:05.255Z,11.02
2023-03-01T07:06:09.263Z,11.50
2023-03-01T07:09:11.804Z,11.27
2023-03-01T07:12:14.670Z,12.50
2023-03-01T07:15:17.925Z,11.33
2023-03-01T07:18:20.598Z,11.68
2023-03-01T07:21:24.567Z,10.80
2023-03-01T07:24:27.375Z,13.17
2023-03-01T07:27:30.088Z,12.20
2023-03-01T07:30:33.072Z,12.00
2023-03-01T07:33:35.662Z,11.73
2023-03-01T07:36:40.505Z,12.87
2023-03-01T07:39:43.284Z,12.07
2023-03-01T07:42:45.911Z,12.50
2023-03-01T07:45:48.591Z,10.63
2023-03-01T07:48:51.223Z,12.77
2023-03-01T07:51:55.390Z,11.17
2023-03-01T07:54:58.382Z,12.03
2023-03-01T07:58:01.055Z,11.77
2023-03-01T08:04:31.409Z,10.23
2023-03-01T08:07:35.518Z,11.57
2023-03-01T08:10:38.213Z,11.53
2023-03-01T08:13:40.903Z,12.23
2023-03-01T08:16:43.832Z,12.23
2023-03-01T08:19:46.840Z,12.60
2023-03-01T08:22:50.842Z,12.73
2023-03-01T08:25:53.957Z,11.63
2023-03-01T08:28:56.618Z,11.23
2023-03-01T08:31:59.478Z,12.00
2023-03-01T08:35:02.284Z,12.37
2023-03-01T08:38:06.253Z,12.27
2023-03-01T08:44:11.898Z,12.07
2023-03-01T08:47:14.507Z,10.95
2023-03-01T08:50:17.733Z,11.07
2023-03-01T08:53:21.733Z,11.27
2023-03-01T08:56:24.303Z,11.57
2023-03-01T08:59:27.795Z,11.87
2023-03-01T09:02:30.561Z,12.75
2023-03-01T09:05:33.422Z,11.87
2023-03-01T09:08:38.096Z,11.40
2023-03-01T09:11:40.683Z,12.07
2023-03-01T09:14:43.312Z,11.70
2023-03-01T09:17:46.114Z,12.07
2023-03-01T09:20:48.704Z,11.67
2023-03-01T09:23:52.811Z,9.23
2023-03-01T09:26:56.395Z,12.33
2023-03-01T09:29:59.020Z,11.32
2023-03-01T09:33:01.922Z,11.33
2023-03-01T09:36:06.355Z,11.27
2023-03-01T09:39:10.477Z,11.73
2023-03-01T09:42:14.410Z,12.13
2023-03-01T09:48:24.529Z,10.98
2023-03-01T09:51:34.235Z,12.23
2023-03-01T09:54:38.291Z,11.47
2023-03-01T09:57:48.481Z,10.67
2023-03-01T10:00:52.113Z,10.60
2023-03-01T10:04:05.813Z,11.90
2023-03-01T10:07:18.253Z,11.02
2023-03-01T10:10:29.452Z,10.80
2023-03-01T10:13:39.989Z,11.57
2023-03-01T10:16:46.071Z,11.77
2023-03-01T10:19:49.434Z,10.37
2023-03-01T10:22:53.634Z,11.60
2023-03-01T10:26:07.381Z,12.07
2023-03-01T10:29:11.692Z,11.50
2023-03-01T10:32:14.504Z,10.13
2023-03-01T10:35:19.459Z,11.80
2023-03-01T10:38:22.644Z,11.43
2023-03-01T10:41:28.213Z,11.30
2023-03-01T10:44:45.883Z,11.80
2023-03-01T10:47:48.633Z,11.00
2023-03-01T10:50:52.642Z,11.30
2023-03-01T10:53:55.243Z,11.57
2023-03-01T10:57:01.595Z,10.70
2023-03-01T11:00:23.711Z,11.07
2023-03-01T11:03:28.455Z,12.53
2023-03-01T11:06:31.088Z,10.43
2023-03-01T11:09:39.515Z,8.57
2023-03-01T11:12:43.567Z,11.20
2023-03-01T11:16:00.724Z,11.27
2023-03-01T11:19:17.647Z,11.90
2023-03-01T11:22:22.535Z,11.43
2023-03-01T11:25:29.013Z,10.83
2023-03-01T11:28:33.066Z,11.60
2023-03-01T11:31:39.077Z,11.00
2023-03-01T11:34:46.158Z,11.73
2023-03-01T11:38:00.134Z,11.50
2023-03-01T11:44:13.795Z,9.73
2023-03-01T11:47:25.280Z,11.07
2023-03-01T11:50:31.833Z,11.47
2023-03-01T11:53:52.644Z,11.47
2023-03-01T11:56:58.367Z,10.30
2023-03-01T12:00:20.262Z,11.73
2023-03-01T12:03:28.663Z,10.77
2023-03-01T12:06:38.702Z,11.77
2023-03-01T12:09:52.769Z,10.93
2023-03-01T12:13:28.284Z,10.80
2023-03-01T12:16:42.925Z,11.07
2023-03-01T12:19:58.709Z,10.67
2023-03-01T12:23:21.107Z,10.77
2023-03-01T12:26:29.958Z,10.97
2023-03-01T12:29:35.793Z,11.17
2023-03-01T12:32:49.603Z,10.97
2023-03-01T12:36:16.281Z,10.05
2023-03-01T12:39:34.428Z,10.17
2023-03-01T12:42:48.485Z,9.37
2023-03-01T12:45:59.869Z,9.90
2023-03-01T12:49:11.149Z,9.30
2023-03-01T12:52:17.465Z,9.90
2023-03-01T12:55:30.230Z,7.60
2023-03-01T12:58:48.689Z,9.60
2023-03-01T13:01:58.738Z,9.60
2023-03-01T13:05:09.558Z,8.40
2023-03-01T13:08:18.499Z,9.53
2023-03-01T13:11:23.208Z,9.27
2023-03-01T13:14:48.275Z,9.17
2023-03-01T13:17:52.513Z,8.73
2023-03-01T13:20:58.430Z,8.70
2023-03-01T13:24:01.067Z,8.57
2023-03-01T13:27:25.926Z,8.43
2023-03-01T13:30:44.019Z,8.47
2023-03-01T13:33:48.340Z,8.33
2023-03-01T13:36:52.522Z,9.10
2023-03-01T13:39:55.228Z,9.40
2023-03-01T13:43:05.582Z,9.73
2023-03-01T13:46:15.015Z,10.10
2023-03-01T13:49:19.672Z,10.30
2023-03-01T13:52:34.488Z,10.63
2023-03-01T13:55:40.635Z,10.03
2023-03-01T13:58:49.745Z,10.50
2023-03-01T14:01:54.757Z,11.30
2023-03-01T14:05:02.082Z,10.20
2023-03-01T14:08:06.912Z,11.60
2023-03-01T14:11:34.588Z,11.00
2023-03-01T14:14:44.758Z,11.57
2023-03-01T14:17:53.159Z,11.47
2023-03-01T14:20:55.917Z,12.03
2023-03-01T14:24:00.569Z,11.15
2023-03-01T14:27:03.674Z,11.77
2023-03-01T14:30:13.617Z,11.63
2023-03-01T14:33:25.733Z,11.50
2023-03-01T14:36:29.756Z,11.87
2023-03-01T14:39:34.328Z,11.37
2023-03-01T14:42:38.489Z,11.53
2023-03-01T14:45:41.135Z,11.53
2023-03-01T14:48:43.785Z,10.40
2023-03-01T14:51:53.566Z,12.18
2023-03-01T14:54:57.585Z,10.30
2023-03-01T14:58:03.130Z,10.60
2023-03-01T15:01:07.348Z,11.87
2023-03-01T15:04:13.636Z,10.77
2023-03-01T15:07:16.667Z,11.70
2023-03-01T15:10:23.154Z,11.45
2023-03-01T15:13:27.376Z,11.07
2023-03-01T15:16:32.526Z,12.30
2023-03-01T15:19:35.466Z,11.73
2023-03-01T15:22:38.118Z,11.52
2023-03-01T15:25:46.870Z,11.25
2023-03-01T15:28:52.024Z,11.13
2023-03-01T15:31:59.821Z,11.13
2023-03-01T15:35:11.436Z,12.03
2023-03-01T15:38:27.966Z,11.97
2023-03-01T15:41:33.279Z,10.73
2023-03-01T15:44:43.829Z,11.20
2023-03-01T15:47:51.059Z,12.23
2023-03-01T15:50:56.743Z,9.50
2023-03-01T15:54:01.993Z,10.50
2023-03-01T15:57:05.963Z,10.23
2023-03-01T16:00:12.554Z,11.70
2023-03-01T16:03:15.187Z,11.33
2023-03-01T16:06:17.801Z,10.87
2023-03-01T16:09:20.580Z,10.60
2023-03-01T16:12:25.205Z,9.60
2023-03-01T16:15:31.946Z,10.13
2023-03-01T16:18:35.500Z,11.27
2023-03-01T16:21:38.732Z,10.70
2023-03-01T16:24:41.894Z,10.25
2023-03-01T16:27:46.566Z,10.88
2023-03-01T16:30:50.326Z,10.90
2023-03-01T16:40:00.294Z,10.47
2023-03-01T16:43:04.471Z,11.13
2023-03-01T16:46:12.477Z,10.70
2023-03-01T16:49:15.274Z,12.33
2023-03-01T16:52:22.868Z,10.40
2023-03-01T16:55:25.642Z,10.93
2023-03-01T16:58:29.721Z,10.48
2023-03-01T17:01:38.469Z,10.60
2023-03-01T17:04:41.503Z,11.17
2023-03-01T17:07:44.375Z,11.55
2023-03-01T17:10:46.971Z,12.40
2023-03-01T17:13:50.971Z,10.67
2023-03-01T17:16:54.001Z,12.23
2023-03-01T17:19:57.446Z,10.82
2023-03-01T17:23:00.074Z,10.77
2023-03-01T17:26:03.026Z,11.07
2023-03-01T17:29:07.349Z,11.90
2023-03-01T17:32:10.961Z,11.33
2023-03-01T17:35:13.878Z,10.77
2023-03-01T17:38:17.128Z,11.85
2023-03-01T17:41:20.838Z,12.13
2023-03-01T17:44:25.208Z,11.48
2023-03-01T17:47:28.118Z,11.90
2023-03-01T17:50:30.859Z,12.90
2023-03-01T17:53:33.585Z,14.00
2023-03-01T17:56:38.757Z,15.27
2023-03-01T17:59:42.823Z,12.57
2023-03-01T18:02:46.133Z,12.60
2023-03-01T18:05:49.307Z,11.80
2023-03-01T18:08:53.563Z,12.63
2023-03-01T18:11:56.303Z,12.30
2023-03-01T18:15:00.307Z,13.97
2023-03-01T18:18:02.945Z,12.13
2023-03-01T18:21:06.341Z,12.13
2023-03-01T18:24:09.092Z,12.02
2023-03-01T18:27:12.074Z,11.83
2023-03-01T18:30:17.194Z,12.57
2023-03-01T18:33:19.824Z,12.50
2023-03-01T18:36:24.361Z,13.00
2023-03-01T18:39:27.006Z,12.00
2023-03-01T18:42:29.658Z,13.60
2023-03-01T18:45:33.736Z,13.07
2023-03-01T18:48:37.124Z,13.13
2023-03-01T18:51:40.482Z,12.70
2023-03-01T18:54:43.184Z,13.80
2023-03-01T18:57:45.810Z,11.73
2023-03-01T19:00:49.820Z,12.10
2023-03-01T19:03:54.737Z,14.97
2023-03-01T19:06:57.896Z,14.40
2023-03-01T19:10:00.769Z,14.50
2023-03-01T19:13:03.533Z,14.43
2023-03-01T19:16:09.802Z,14.70
2023-03-01T19:19:13.266Z,12.63
2023-03-01T19:22:16.105Z,13.63
2023-03-01T19:25:19.400Z,13.83
2023-03-01T19:28:22.058Z,11.88
2023-03-01T19:31:28.591Z,13.77
2023-03-01T19:34:31.931Z,13.57
2023-03-01T19:37:35.529Z,15.18
2023-03-01T19:40:38.489Z,14.00
2023-03-01T19:43:41.722Z,13.88
2023-03-01T19:46:45.977Z,13.20
2023-03-01T19:49:48.715Z,12.27
2023-03-01T19:52:52.600Z,12.67
2023-03-01T19:59:04.701Z,11.13
2023-03-01T20:02:10.438Z,13.90
2023-03-01T20:05:13.323Z,12.60
2023-03-01T20:08:15.995Z,14.00
2023-03-01T20:11:20.305Z,14.83
2023-03-01T20:14:24.431Z,13.00
2023-03-01T20:17:28.601Z,12.10
2023-03-01T20:20:31.371Z,12.27
2023-03-01T20:23:34.009Z,12.00
2023-03-01T20:26:37.548Z,13.67
2023-03-01T20:29:40.381Z,14.02
2023-03-01T20:32:45.026Z,13.73
2023-03-01T20:35:48.038Z,13.23
2023-03-01T20:38:50.779Z,13.38
2023-03-01T20:41:54.386Z,11.93
2023-03-01T20:44:57.330Z,14.25
2023-03-01T20:48:17.385Z,13.75
2023-03-01T20:51:20.494Z,13.00
2023-03-01T20:54:23.113Z,12.77
2023-03-01T20:57:25.939Z,13.13
2023-03-01T21:00:29.360Z,13.53
2023-03-01T21:03:38.797Z,13.07
2023-03-01T21:06:46.139Z,13.53
2023-03-01T21:09:49.106Z,13.00
2023-03-01T21:12:51.806Z,13.27
2023-03-01T21:15:54.838Z,12.87
2023-03-01T21:19:01.555Z,13.98
2023-03-01T21:22:06.803Z,12.47
2023-03-01T21:25:09.851Z,14.20
2023-03-01T21:28:12.466Z,16.45
2023-03-01T21:31:17.062Z,13.33
2023-03-01T21:34:21.108Z,11.73
2023-03-01T21:37:27.828Z,11.77
2023-03-01T21:40:30.449Z,13.00
2023-03-01T21:43:33.133Z,13.03
2023-03-01T21:46:37.902Z,21.93
2023-03-01T21:49:41.897Z,16.00
2023-03-01T21:52:44.703Z,17.53
2023-03-01T21:55:48.043Z,20.73
2023-03-01T21:58:50.873Z,20.27
2023-03-01T22:01:53.622Z,14.53
2023-03-01T22:04:57.653Z,16.80
2023-03-01T22:08:00.329Z,15.10
2023-03-01T22:11:03.511Z,16.10
2023-03-01T22:14:06.704Z,17.10
2023-03-01T22:17:09.262Z,16.08
2023-03-01T22:20:14.327Z,15.67
2023-03-01T22:23:16.925Z,14.53
2023-03-01T22:26:24.367Z,14.17
2023-03-01T22:29:28.942Z,12.93
2023-03-01T22:32:32.046Z,12.60
2023-03-01T22:35:36.098Z,12.88
2023-03-01T22:38:39.442Z,13.03
2023-03-01T22:41:45.663Z,12.45
2023-03-01T22:44:48.361Z,12.67
2023-03-01T22:47:51.159Z,13.60
2023-03-01T22:50:55.179Z,13.03
2023-03-01T22:54:05.139Z,13.83
2023-03-01T22:57:09.052Z,12.77
2023-03-01T23:03:17.378Z,12.77
2023-03-01T23:06:22.894Z,12.47
2023-03-01T23:09:27.477Z,13.03
2023-03-01T23:12:30.141Z,12.97
2023-03-01T23:15:32.941Z,13.37
2023-03-01T23:18:35.653Z,14.13
2023-03-01T23:21:44.156Z,12.67
2023-03-01T23:24:47.646Z,13.70
2023-03-01T23:27:50.247Z,12.18
2023-03-01T23:30:57.728Z,13.53
2023-03-01T23:34:00.471Z,12.23
2023-03-01T23:37:05.092Z,12.83
2023-03-01T23:40:09.001Z,12.67
2023-03-01T23:46:14.468Z,12.77
2023-03-01T23:49:19.463Z,13.00
2023-03-01T23:52:23.585Z,12.47
2023-03-01T23:55:27.126Z,12.93
2023-03-01T23:58:30.101Z,12.27
